sensor_id;sensor_type;location;lat;lon;timestamp;temperature;humidity
73112;HTU21D;61301;51.956;5.876;2023-09-30T00:01:24;18.10;55.22
73112;HTU21D;61301;51.956;5.876;2023-09-30T00:03:50;18.12;55.26
73112;HTU21D;61301;51.956;5.876;2023-09-30T00:06:16;18.19;55.27
73112;HTU21D;61301;51.956;5.876;2023-09-30T00:08:42;18.25;55.33
73112;HTU21D;61301;51.956;5.876;2023-09-30T00:11:09;18.27;55.13
73112;HTU21D;61301;51.956;5.876;2023-09-30T00:13:35;18.20;55.31
73112;HTU21D;61301;51.956;5.876;2023-09-30T00:16:01;18.00;55.78
73112;HTU21D;61301;51.956;5.876;2023-09-30T00:18:27;17.95;55.85
73112;HTU21D;61301;51.956;5.876;2023-09-30T00:20:53;17.97;55.94
73112;HTU21D;61301;51.956;5.876;2023-09-30T00:23:19;18.07;55.88
73112;HTU21D;61301;51.956;5.876;2023-09-30T00:25:50;18.14;55.81
73112;HTU21D;61301;51.956;5.876;2023-09-30T00:28:16;18.19;55.66
73112;HTU21D;61301;51.956;5.876;2023-09-30T00:30:42;18.18;55.60
73112;HTU21D;61301;51.956;5.876;2023-09-30T00:33:11;18.15;55.59
73112;HTU21D;61301;51.956;5.876;2023-09-30T00:35:37;18.17;55.61
73112;HTU21D;61301;51.956;5.876;2023-09-30T00:38:03;18.18;55.58
73112;HTU21D;61301;51.956;5.876;2023-09-30T00:40:29;18.17;55.61
73112;HTU21D;61301;51.956;5.876;2023-09-30T00:42:58;18.18;55.66
73112;HTU21D;61301;51.956;5.876;2023-09-30T00:45:24;18.19;55.52
73112;HTU21D;61301;51.956;5.876;2023-09-30T00:47:50;18.18;55.48
73112;HTU21D;61301;51.956;5.876;2023-09-30T00:50:19;18.21;55.31
73112;HTU21D;61301;51.956;5.876;2023-09-30T00:52:49;18.19;55.36
73112;HTU21D;61301;51.956;5.876;2023-09-30T00:55:16;18.13;55.36
73112;HTU21D;61301;51.956;5.876;2023-09-30T00:57:43;18.07;55.34
73112;HTU21D;61301;51.956;5.876;2023-09-30T01:00:11;17.97;55.54
73112;HTU21D;61301;51.956;5.876;2023-09-30T01:02:41;17.96;55.76
73112;HTU21D;61301;51.956;5.876;2023-09-30T01:05:08;17.96;55.71
73112;HTU21D;61301;51.956;5.876;2023-09-30T01:07:35;17.97;55.78
73112;HTU21D;61301;51.956;5.876;2023-09-30T01:10:01;17.98;55.72
73112;HTU21D;61301;51.956;5.876;2023-09-30T01:12:28;17.96;55.70
73112;HTU21D;61301;51.956;5.876;2023-09-30T01:14:58;17.89;55.83
73112;HTU21D;61301;51.956;5.876;2023-09-30T01:17:24;17.79;55.95
73112;HTU21D;61301;51.956;5.876;2023-09-30T01:19:50;17.75;55.99
73112;HTU21D;61301;51.956;5.876;2023-09-30T01:22:18;17.67;56.08
73112;HTU21D;61301;51.956;5.876;2023-09-30T01:24:44;17.63;56.10
73112;HTU21D;61301;51.956;5.876;2023-09-30T01:27:13;17.64;55.98
73112;HTU21D;61301;51.956;5.876;2023-09-30T01:29:39;17.60;55.99
73112;HTU21D;61301;51.956;5.876;2023-09-30T01:32:05;17.56;56.07
73112;HTU21D;61301;51.956;5.876;2023-09-30T01:34:36;17.52;56.16
73112;HTU21D;61301;51.956;5.876;2023-09-30T01:37:02;17.52;56.24
73112;HTU21D;61301;51.956;5.876;2023-09-30T01:39:28;17.49;56.61
73112;HTU21D;61301;51.956;5.876;2023-09-30T01:41:55;17.45;56.55
73112;HTU21D;61301;51.956;5.876;2023-09-30T01:44:21;17.40;56.58
73112;HTU21D;61301;51.956;5.876;2023-09-30T01:46:47;17.40;56.57
73112;HTU21D;61301;51.956;5.876;2023-09-30T01:49:13;17.39;56.50
73112;HTU21D;61301;51.956;5.876;2023-09-30T01:51:39;17.37;56.42
73112;HTU21D;61301;51.956;5.876;2023-09-30T01:54:05;17.32;56.34
73112;HTU21D;61301;51.956;5.876;2023-09-30T01:56:31;17.28;56.40
73112;HTU21D;61301;51.956;5.876;2023-09-30T01:58:59;17.29;56.48
73112;HTU21D;61301;51.956;5.876;2023-09-30T02:01:25;17.32;56.53
73112;HTU21D;61301;51.956;5.876;2023-09-30T02:03:51;17.32;56.48
73112;HTU21D;61301;51.956;5.876;2023-09-30T02:06:17;17.29;56.52
73112;HTU21D;61301;51.956;5.876;2023-09-30T02:08:44;17.30;56.56
73112;HTU21D;61301;51.956;5.876;2023-09-30T02:11:11;17.36;56.56
73112;HTU21D;61301;51.956;5.876;2023-09-30T02:13:41;17.40;56.57
73112;HTU21D;61301;51.956;5.876;2023-09-30T02:16:12;17.45;56.58
73112;HTU21D;61301;51.956;5.876;2023-09-30T02:18:40;17.38;56.46
73112;HTU21D;61301;51.956;5.876;2023-09-30T02:21:07;17.33;56.46
73112;HTU21D;61301;51.956;5.876;2023-09-30T02:23:35;17.22;56.74
73112;HTU21D;61301;51.956;5.876;2023-09-30T02:26:02;17.22;56.80
73112;HTU21D;61301;51.956;5.876;2023-09-30T02:28:29;17.28;56.82
73112;HTU21D;61301;51.956;5.876;2023-09-30T02:30:59;17.34;56.87
73112;HTU21D;61301;51.956;5.876;2023-09-30T02:33:25;17.37;57.03
73112;HTU21D;61301;51.956;5.876;2023-09-30T02:35:51;17.33;57.13
73112;HTU21D;61301;51.956;5.876;2023-09-30T02:38:18;17.34;57.04
73112;HTU21D;61301;51.956;5.876;2023-09-30T02:40:47;17.38;56.97
73112;HTU21D;61301;51.956;5.876;2023-09-30T02:43:14;17.44;56.93
73112;HTU21D;61301;51.956;5.876;2023-09-30T02:45:40;17.49;56.87
73112;HTU21D;61301;51.956;5.876;2023-09-30T02:48:06;17.47;56.92
73112;HTU21D;61301;51.956;5.876;2023-09-30T02:50:32;17.45;56.93
73112;HTU21D;61301;51.956;5.876;2023-09-30T02:52:59;17.46;57.00
73112;HTU21D;61301;51.956;5.876;2023-09-30T02:55:25;17.49;56.97
73112;HTU21D;61301;51.956;5.876;2023-09-30T02:57:51;17.52;56.90
73112;HTU21D;61301;51.956;5.876;2023-09-30T03:00:21;17.51;56.98
73112;HTU21D;61301;51.956;5.876;2023-09-30T03:02:55;17.48;57.06
73112;HTU21D;61301;51.956;5.876;2023-09-30T03:05:24;17.45;57.10
73112;HTU21D;61301;51.956;5.876;2023-09-30T03:07:51;17.41;57.06
73112;HTU21D;61301;51.956;5.876;2023-09-30T03:10:18;17.45;57.13
73112;HTU21D;61301;51.956;5.876;2023-09-30T03:12:53;17.47;57.13
73112;HTU21D;61301;51.956;5.876;2023-09-30T03:15:19;17.50;57.04
73112;HTU21D;61301;51.956;5.876;2023-09-30T03:17:45;17.52;57.03
73112;HTU21D;61301;51.956;5.876;2023-09-30T03:20:12;17.62;56.71
73112;HTU21D;61301;51.956;5.876;2023-09-30T03:22:41;17.67;56.64
73112;HTU21D;61301;51.956;5.876;2023-09-30T03:25:11;17.75;56.60
73112;HTU21D;61301;51.956;5.876;2023-09-30T03:27:44;17.82;56.61
73112;HTU21D;61301;51.956;5.876;2023-09-30T03:30:13;17.83;56.52
73112;HTU21D;61301;51.956;5.876;2023-09-30T03:32:39;17.84;56.48
73112;HTU21D;61301;51.956;5.876;2023-09-30T03:35:06;17.84;56.55
73112;HTU21D;61301;51.956;5.876;2023-09-30T03:37:33;17.81;56.63
73112;HTU21D;61301;51.956;5.876;2023-09-30T03:40:00;17.83;56.70
73112;HTU21D;61301;51.956;5.876;2023-09-30T03:42:33;17.89;56.64
73112;HTU21D;61301;51.956;5.876;2023-09-30T03:44:59;17.85;56.61
73112;HTU21D;61301;51.956;5.876;2023-09-30T03:47:25;17.81;56.68
73112;HTU21D;61301;51.956;5.876;2023-09-30T03:49:52;17.80;56.68
73112;HTU21D;61301;51.956;5.876;2023-09-30T03:52:19;17.80;56.69
73112;HTU21D;61301;51.956;5.876;2023-09-30T03:54:48;17.78;56.65
73112;HTU21D;61301;51.956;5.876;2023-09-30T03:57:14;17.77;56.62
73112;HTU21D;61301;51.956;5.876;2023-09-30T03:59:42;17.74;56.75
73112;HTU21D;61301;51.956;5.876;2023-09-30T04:02:08;17.70;56.84
73112;HTU21D;61301;51.956;5.876;2023-09-30T04:04:34;17.70;56.80
73112;HTU21D;61301;51.956;5.876;2023-09-30T04:07:00;17.73;56.90
73112;HTU21D;61301;51.956;5.876;2023-09-30T04:09:26;17.81;56.88
73112;HTU21D;61301;51.956;5.876;2023-09-30T04:12:01;17.88;57.02
73112;HTU21D;61301;51.956;5.876;2023-09-30T04:14:33;17.94;57.09
73112;HTU21D;61301;51.956;5.876;2023-09-30T04:16:59;17.97;56.90
73112;HTU21D;61301;51.956;5.876;2023-09-30T04:19:25;18.00;56.88
73112;HTU21D;61301;51.956;5.876;2023-09-30T04:21:51;17.99;56.80
73112;HTU21D;61301;51.956;5.876;2023-09-30T04:24:17;17.99;56.77
73112;HTU21D;61301;51.956;5.876;2023-09-30T04:26:45;17.97;56.76
73112;HTU21D;61301;51.956;5.876;2023-09-30T04:29:11;17.93;56.86
73112;HTU21D;61301;51.956;5.876;2023-09-30T04:31:38;17.94;57.00
73112;HTU21D;61301;51.956;5.876;2023-09-30T04:34:07;17.84;57.19
73112;HTU21D;61301;51.956;5.876;2023-09-30T04:36:33;17.88;57.29
73112;HTU21D;61301;51.956;5.876;2023-09-30T04:39:01;17.93;57.10
73112;HTU21D;61301;51.956;5.876;2023-09-30T04:41:27;17.93;57.04
73112;HTU21D;61301;51.956;5.876;2023-09-30T04:43:55;17.91;57.00
73112;HTU21D;61301;51.956;5.876;2023-09-30T04:46:21;17.89;57.04
73112;HTU21D;61301;51.956;5.876;2023-09-30T04:48:49;17.91;57.14
73112;HTU21D;61301;51.956;5.876;2023-09-30T04:51:18;17.96;57.12
73112;HTU21D;61301;51.956;5.876;2023-09-30T04:53:45;17.96;57.06
73112;HTU21D;61301;51.956;5.876;2023-09-30T04:56:12;17.96;57.02
73112;HTU21D;61301;51.956;5.876;2023-09-30T04:58:38;17.90;57.23
73112;HTU21D;61301;51.956;5.876;2023-09-30T05:01:04;17.90;57.16
73112;HTU21D;61301;51.956;5.876;2023-09-30T05:03:35;17.85;57.16
73112;HTU21D;61301;51.956;5.876;2023-09-30T05:06:01;17.93;56.92
73112;HTU21D;61301;51.956;5.876;2023-09-30T05:08:27;17.90;56.98
73112;HTU21D;61301;51.956;5.876;2023-09-30T05:10:55;17.85;57.00
73112;HTU21D;61301;51.956;5.876;2023-09-30T05:13:21;17.81;57.00
73112;HTU21D;61301;51.956;5.876;2023-09-30T05:15:49;17.79;57.03
73112;HTU21D;61301;51.956;5.876;2023-09-30T05:18:17;17.78;57.03
73112;HTU21D;61301;51.956;5.876;2023-09-30T05:20:43;17.79;57.00
73112;HTU21D;61301;51.956;5.876;2023-09-30T05:23:09;17.79;57.02
73112;HTU21D;61301;51.956;5.876;2023-09-30T05:25:39;17.80;57.01
73112;HTU21D;61301;51.956;5.876;2023-09-30T05:28:05;17.80;57.01
73112;HTU21D;61301;51.956;5.876;2023-09-30T05:30:33;17.80;56.97
73112;HTU21D;61301;51.956;5.876;2023-09-30T05:33:00;17.80;56.97
73112;HTU21D;61301;51.956;5.876;2023-09-30T05:35:26;17.76;57.00
73112;HTU21D;61301;51.956;5.876;2023-09-30T05:37:54;17.72;57.09
73112;HTU21D;61301;51.956;5.876;2023-09-30T05:40:20;17.73;57.10
73112;HTU21D;61301;51.956;5.876;2023-09-30T05:42:52;17.73;57.03
73112;HTU21D;61301;51.956;5.876;2023-09-30T05:45:19;17.72;56.98
73112;HTU21D;61301;51.956;5.876;2023-09-30T05:47:45;17.70;57.03
73112;HTU21D;61301;51.956;5.876;2023-09-30T05:50:14;17.74;57.10
73112;HTU21D;61301;51.956;5.876;2023-09-30T05:52:44;17.76;57.12
73112;HTU21D;61301;51.956;5.876;2023-09-30T05:55:11;17.73;57.13
73112;HTU21D;61301;51.956;5.876;2023-09-30T05:57:37;17.74;57.16
73112;HTU21D;61301;51.956;5.876;2023-09-30T06:00:04;17.74;57.16
73112;HTU21D;61301;51.956;5.876;2023-09-30T06:02:40;17.73;57.18
73112;HTU21D;61301;51.956;5.876;2023-09-30T06:05:06;17.65;57.45
73112;HTU21D;61301;51.956;5.876;2023-09-30T06:07:32;17.64;57.55
73112;HTU21D;61301;51.956;5.876;2023-09-30T06:09:59;17.67;57.60
73112;HTU21D;61301;51.956;5.876;2023-09-30T06:12:29;17.67;57.58
73112;HTU21D;61301;51.956;5.876;2023-09-30T06:14:55;17.77;57.29
73112;HTU21D;61301;51.956;5.876;2023-09-30T06:17:21;17.81;57.26
73112;HTU21D;61301;51.956;5.876;2023-09-30T06:19:48;17.82;57.32
73112;HTU21D;61301;51.956;5.876;2023-09-30T06:22:16;17.82;57.30
73112;HTU21D;61301;51.956;5.876;2023-09-30T06:24:42;17.84;57.28
73112;HTU21D;61301;51.956;5.876;2023-09-30T06:27:08;17.88;57.31
73112;HTU21D;61301;51.956;5.876;2023-09-30T06:29:38;17.88;57.32
73112;HTU21D;61301;51.956;5.876;2023-09-30T06:32:08;17.93;57.38
73112;HTU21D;61301;51.956;5.876;2023-09-30T06:34:34;17.94;57.32
73112;HTU21D;61301;51.956;5.876;2023-09-30T06:37:00;17.98;57.33
73112;HTU21D;61301;51.956;5.876;2023-09-30T06:39:26;18.02;57.34
73112;HTU21D;61301;51.956;5.876;2023-09-30T06:41:52;18.04;57.46
73112;HTU21D;61301;51.956;5.876;2023-09-30T06:44:18;18.06;57.53
73112;HTU21D;61301;51.956;5.876;2023-09-30T06:46:44;18.10;57.55
73112;HTU21D;61301;51.956;5.876;2023-09-30T06:49:10;18.14;57.55
73112;HTU21D;61301;51.956;5.876;2023-09-30T06:51:36;18.12;57.74
73112;HTU21D;61301;51.956;5.876;2023-09-30T06:54:04;18.14;57.90
73112;HTU21D;61301;51.956;5.876;2023-09-30T06:56:32;18.20;57.91
73112;HTU21D;61301;51.956;5.876;2023-09-30T06:58:58;18.22;57.95
73112;HTU21D;61301;51.956;5.876;2023-09-30T07:01:25;18.27;57.94
73112;HTU21D;61301;51.956;5.876;2023-09-30T07:03:54;18.28;58.48
73112;HTU21D;61301;51.956;5.876;2023-09-30T07:06:26;18.30;58.45
73112;HTU21D;61301;51.956;5.876;2023-09-30T07:08:52;18.28;58.36
73112;HTU21D;61301;51.956;5.876;2023-09-30T07:11:30;18.38;58.40
73112;HTU21D;61301;51.956;5.876;2023-09-30T07:13:59;18.36;58.53
73112;HTU21D;61301;51.956;5.876;2023-09-30T07:16:25;18.37;58.93
73112;HTU21D;61301;51.956;5.876;2023-09-30T07:18:51;18.38;59.07
73112;HTU21D;61301;51.956;5.876;2023-09-30T07:21:17;18.44;59.06
73112;HTU21D;61301;51.956;5.876;2023-09-30T07:23:43;18.53;59.12
73112;HTU21D;61301;51.956;5.876;2023-09-30T07:26:09;18.61;59.32
73112;HTU21D;61301;51.956;5.876;2023-09-30T07:28:35;18.64;59.34
73112;HTU21D;61301;51.956;5.876;2023-09-30T07:31:01;18.73;59.48
73112;HTU21D;61301;51.956;5.876;2023-09-30T07:33:27;18.76;59.72
73112;HTU21D;61301;51.956;5.876;2023-09-30T07:35:53;18.91;59.54
73112;HTU21D;61301;51.956;5.876;2023-09-30T07:38:21;18.96;59.72
73112;HTU21D;61301;51.956;5.876;2023-09-30T07:40:48;19.03;59.73
73112;HTU21D;61301;51.956;5.876;2023-09-30T07:43:17;19.13;59.86
73112;HTU21D;61301;51.956;5.876;2023-09-30T07:45:46;19.24;59.78
73112;HTU21D;61301;51.956;5.876;2023-09-30T07:48:12;19.36;59.71
73112;HTU21D;61301;51.956;5.876;2023-09-30T07:50:38;19.44;59.90
73112;HTU21D;61301;51.956;5.876;2023-09-30T07:53:04;19.51;59.91
73112;HTU21D;61301;51.956;5.876;2023-09-30T07:55:30;19.61;59.73
73112;HTU21D;61301;51.956;5.876;2023-09-30T07:57:57;19.66;59.70
73112;HTU21D;61301;51.956;5.876;2023-09-30T08:00:23;19.76;59.57
73112;HTU21D;61301;51.956;5.876;2023-09-30T08:02:49;19.91;59.41
73112;HTU21D;61301;51.956;5.876;2023-09-30T08:05:16;20.06;59.27
73112;HTU21D;61301;51.956;5.876;2023-09-30T08:07:42;20.17;58.97
73112;HTU21D;61301;51.956;5.876;2023-09-30T08:10:09;20.22;58.72
73112;HTU21D;61301;51.956;5.876;2023-09-30T08:12:40;20.34;58.58
73112;HTU21D;61301;51.956;5.876;2023-09-30T08:15:06;20.46;58.43
73112;HTU21D;61301;51.956;5.876;2023-09-30T08:17:33;20.48;58.41
73112;HTU21D;61301;51.956;5.876;2023-09-30T08:19:59;20.59;58.48
73112;HTU21D;61301;51.956;5.876;2023-09-30T08:22:26;20.65;58.42
73112;HTU21D;61301;51.956;5.876;2023-09-30T08:24:54;20.75;58.33
73112;HTU21D;61301;51.956;5.876;2023-09-30T08:27:20;20.84;58.10
73112;HTU21D;61301;51.956;5.876;2023-09-30T08:29:46;20.89;57.96
73112;HTU21D;61301;51.956;5.876;2023-09-30T08:32:12;21.00;57.81
73112;HTU21D;61301;51.956;5.876;2023-09-30T08:34:41;21.14;57.67
73112;HTU21D;61301;51.956;5.876;2023-09-30T08:37:09;21.21;57.55
73112;HTU21D;61301;51.956;5.876;2023-09-30T08:39:38;21.29;57.33
73112;HTU21D;61301;51.956;5.876;2023-09-30T08:42:09;21.37;57.36
73112;HTU21D;61301;51.956;5.876;2023-09-30T08:44:38;21.51;57.22
73112;HTU21D;61301;51.956;5.876;2023-09-30T08:47:07;21.62;56.52
73112;HTU21D;61301;51.956;5.876;2023-09-30T08:49:37;21.61;56.48
73112;HTU21D;61301;51.956;5.876;2023-09-30T08:52:09;21.63;56.36
73112;HTU21D;61301;51.956;5.876;2023-09-30T08:54:35;21.69;56.22
73112;HTU21D;61301;51.956;5.876;2023-09-30T08:57:02;21.73;56.11
73112;HTU21D;61301;51.956;5.876;2023-09-30T08:59:31;21.90;56.08
73112;HTU21D;61301;51.956;5.876;2023-09-30T09:02:00;22.08;55.68
73112;HTU21D;61301;51.956;5.876;2023-09-30T09:04:26;22.22;55.61
73112;HTU21D;61301;51.956;5.876;2023-09-30T09:06:53;22.46;55.41
73112;HTU21D;61301;51.956;5.876;2023-09-30T09:09:21;22.56;54.91
73112;HTU21D;61301;51.956;5.876;2023-09-30T09:11:48;22.68;54.87
73112;HTU21D;61301;51.956;5.876;2023-09-30T09:14:14;22.84;54.71
73112;HTU21D;61301;51.956;5.876;2023-09-30T09:16:54;22.92;53.34
73112;HTU21D;61301;51.956;5.876;2023-09-30T09:19:20;22.81;54.23
73112;HTU21D;61301;51.956;5.876;2023-09-30T09:21:57;22.95;54.27
73112;HTU21D;61301;51.956;5.876;2023-09-30T09:24:41;23.15;53.70
73112;HTU21D;61301;51.956;5.876;2023-09-30T09:27:13;23.05;53.80
73112;HTU21D;61301;51.956;5.876;2023-09-30T09:29:42;23.16;54.10
73112;HTU21D;61301;51.956;5.876;2023-09-30T09:32:15;23.45;53.81
73112;HTU21D;61301;51.956;5.876;2023-09-30T09:34:43;23.55;53.45
73112;HTU21D;61301;51.956;5.876;2023-09-30T09:39:40;23.73;52.93
73112;HTU21D;61301;51.956;5.876;2023-09-30T09:42:05;23.83;52.62
73112;HTU21D;61301;51.956;5.876;2023-09-30T09:44:33;23.86;52.59
73112;HTU21D;61301;51.956;5.876;2023-09-30T09:47:03;23.92;51.53
73112;HTU21D;61301;51.956;5.876;2023-09-30T09:49:34;23.98;51.97
73112;HTU21D;61301;51.956;5.876;2023-09-30T09:52:00;24.05;51.97
73112;HTU21D;61301;51.956;5.876;2023-09-30T09:54:28;24.15;51.65
73112;HTU21D;61301;51.956;5.876;2023-09-30T09:56:56;24.23;51.75
73112;HTU21D;61301;51.956;5.876;2023-09-30T09:59:25;24.32;51.66
73112;HTU21D;61301;51.956;5.876;2023-09-30T10:01:51;24.36;51.11
73112;HTU21D;61301;51.956;5.876;2023-09-30T10:04:18;24.36;51.24
73112;HTU21D;61301;51.956;5.876;2023-09-30T10:06:46;24.46;50.72
73112;HTU21D;61301;51.956;5.876;2023-09-30T10:09:18;24.63;50.12
73112;HTU21D;61301;51.956;5.876;2023-09-30T10:11:45;24.72;50.20
73112;HTU21D;61301;51.956;5.876;2023-09-30T10:14:32;24.92;49.25
73112;HTU21D;61301;51.956;5.876;2023-09-30T10:16:59;24.88;49.80
73112;HTU21D;61301;51.956;5.876;2023-09-30T10:19:25;24.91;49.85
73112;HTU21D;61301;51.956;5.876;2023-09-30T10:24:55;25.40;48.95
73112;HTU21D;61301;51.956;5.876;2023-09-30T10:30:14;25.66;47.64
73112;HTU21D;61301;51.956;5.876;2023-09-30T10:33:07;25.61;47.41
73112;HTU21D;61301;51.956;5.876;2023-09-30T10:40:51;25.71;47.69
73112;HTU21D;61301;51.956;5.876;2023-09-30T10:43:33;25.73;46.61
73112;HTU21D;61301;51.956;5.876;2023-09-30T10:46:01;25.74;47.52
73112;HTU21D;61301;51.956;5.876;2023-09-30T10:50:55;26.27;46.45
73112;HTU21D;61301;51.956;5.876;2023-09-30T10:53:22;26.23;46.00
73112;HTU21D;61301;51.956;5.876;2023-09-30T10:55:56;26.36;45.63
73112;HTU21D;61301;51.956;5.876;2023-09-30T10:58:42;26.48;45.45
73112;HTU21D;61301;51.956;5.876;2023-09-30T11:01:09;26.71;45.80
73112;HTU21D;61301;51.956;5.876;2023-09-30T11:03:35;26.77;45.86
73112;HTU21D;61301;51.956;5.876;2023-09-30T11:06:02;26.84;44.17
73112;HTU21D;61301;51.956;5.876;2023-09-30T11:08:30;26.51;43.63
73112;HTU21D;61301;51.956;5.876;2023-09-30T11:10:56;26.25;43.49
73112;HTU21D;61301;51.956;5.876;2023-09-30T11:13:22;26.10;43.51
73112;HTU21D;61301;51.956;5.876;2023-09-30T11:15:59;26.15;43.52
73112;HTU21D;61301;51.956;5.876;2023-09-30T11:18:26;25.95;44.55
73112;HTU21D;61301;51.956;5.876;2023-09-30T11:21:06;26.07;44.60
73112;HTU21D;61301;51.956;5.876;2023-09-30T11:23:33;26.11;43.97
73112;HTU21D;61301;51.956;5.876;2023-09-30T11:25:59;26.02;42.21
73112;HTU21D;61301;51.956;5.876;2023-09-30T11:28:42;25.87;42.41
73112;HTU21D;61301;51.956;5.876;2023-09-30T11:31:09;25.75;43.26
73112;HTU21D;61301;51.956;5.876;2023-09-30T11:33:53;25.84;43.22
73112;HTU21D;61301;51.956;5.876;2023-09-30T11:36:22;25.78;43.24
73112;HTU21D;61301;51.956;5.876;2023-09-30T11:38:50;25.84;43.17
73112;HTU21D;61301;51.956;5.876;2023-09-30T11:41:18;25.87;43.39
73112;HTU21D;61301;51.956;5.876;2023-09-30T11:46:48;25.86;43.34
73112;HTU21D;61301;51.956;5.876;2023-09-30T11:49:34;25.90;43.13
73112;HTU21D;61301;51.956;5.876;2023-09-30T11:52:07;25.95;41.81
73112;HTU21D;61301;51.956;5.876;2023-09-30T11:54:41;25.99;42.23
73112;HTU21D;61301;51.956;5.876;2023-09-30T11:57:14;26.18;42.29
73112;HTU21D;61301;51.956;5.876;2023-09-30T11:59:45;26.37;41.37
73112;HTU21D;61301;51.956;5.876;2023-09-30T12:02:15;26.37;40.78
73112;HTU21D;61301;51.956;5.876;2023-09-30T12:04:43;26.40;40.80
73112;HTU21D;61301;51.956;5.876;2023-09-30T12:07:09;26.49;40.90
73112;HTU21D;61301;51.956;5.876;2023-09-30T12:09:37;26.68;40.72
73112;HTU21D;61301;51.956;5.876;2023-09-30T12:12:04;26.90;38.45
73112;HTU21D;61301;51.956;5.876;2023-09-30T12:14:30;26.93;38.32
73112;HTU21D;61301;51.956;5.876;2023-09-30T12:16:57;26.97;39.36
73112;HTU21D;61301;51.956;5.876;2023-09-30T12:19:23;27.13;39.30
73112;HTU21D;61301;51.956;5.876;2023-09-30T12:21:50;27.11;38.49
73112;HTU21D;61301;51.956;5.876;2023-09-30T12:24:17;27.05;39.07
73112;HTU21D;61301;51.956;5.876;2023-09-30T12:26:46;27.10;37.59
73112;HTU21D;61301;51.956;5.876;2023-09-30T12:29:22;27.10;38.63
73112;HTU21D;61301;51.956;5.876;2023-09-30T12:31:50;26.97;38.22
73112;HTU21D;61301;51.956;5.876;2023-09-30T12:34:16;26.87;38.49
73112;HTU21D;61301;51.956;5.876;2023-09-30T12:36:43;26.96;39.20
73112;HTU21D;61301;51.956;5.876;2023-09-30T12:39:10;27.06;38.25
73112;HTU21D;61301;51.956;5.876;2023-09-30T12:41:37;27.12;38.88
73112;HTU21D;61301;51.956;5.876;2023-09-30T12:44:04;27.07;37.73
73112;HTU21D;61301;51.956;5.876;2023-09-30T12:46:30;26.96;38.49
73112;HTU21D;61301;51.956;5.876;2023-09-30T12:48:56;27.11;37.94
73112;HTU21D;61301;51.956;5.876;2023-09-30T12:51:23;27.32;38.40
73112;HTU21D;61301;51.956;5.876;2023-09-30T12:53:50;27.55;37.56
73112;HTU21D;61301;51.956;5.876;2023-09-30T12:56:16;27.59;37.69
73112;HTU21D;61301;51.956;5.876;2023-09-30T12:58:42;27.67;37.82
73112;HTU21D;61301;51.956;5.876;2023-09-30T13:01:11;27.63;37.72
73112;HTU21D;61301;51.956;5.876;2023-09-30T13:03:37;27.66;37.86
73112;HTU21D;61301;51.956;5.876;2023-09-30T13:06:03;27.69;37.96
73112;HTU21D;61301;51.956;5.876;2023-09-30T13:08:30;27.83;38.02
73112;HTU21D;61301;51.956;5.876;2023-09-30T13:11:00;27.84;36.78
73112;HTU21D;61301;51.956;5.876;2023-09-30T13:13:32;27.65;35.97
73112;HTU21D;61301;51.956;5.876;2023-09-30T13:15:59;27.42;35.50
73112;HTU21D;61301;51.956;5.876;2023-09-30T13:18:25;27.30;36.41
73112;HTU21D;61301;51.956;5.876;2023-09-30T13:20:51;27.42;36.56
73112;HTU21D;61301;51.956;5.876;2023-09-30T13:23:21;27.38;36.62
73112;HTU21D;61301;51.956;5.876;2023-09-30T13:25:47;27.25;36.48
73112;HTU21D;61301;51.956;5.876;2023-09-30T13:28:13;27.16;37.16
73112;HTU21D;61301;51.956;5.876;2023-09-30T13:30:39;27.22;36.37
73112;HTU21D;61301;51.956;5.876;2023-09-30T13:33:05;27.19;36.34
73112;HTU21D;61301;51.956;5.876;2023-09-30T13:35:31;27.08;36.79
73112;HTU21D;61301;51.956;5.876;2023-09-30T13:37:58;27.17;36.76
73112;HTU21D;61301;51.956;5.876;2023-09-30T13:40:24;27.39;36.65
73112;HTU21D;61301;51.956;5.876;2023-09-30T13:42:50;27.45;36.66
73112;HTU21D;61301;51.956;5.876;2023-09-30T13:45:16;27.54;36.43
73112;HTU21D;61301;51.956;5.876;2023-09-30T13:47:45;27.57;36.55
73112;HTU21D;61301;51.956;5.876;2023-09-30T13:50:11;27.80;36.93
73112;HTU21D;61301;51.956;5.876;2023-09-30T13:52:37;27.90;36.97
73112;HTU21D;61301;51.956;5.876;2023-09-30T13:55:03;27.79;37.07
73112;HTU21D;61301;51.956;5.876;2023-09-30T13:57:30;27.85;36.29
73112;HTU21D;61301;51.956;5.876;2023-09-30T13:59:56;27.88;36.47
73112;HTU21D;61301;51.956;5.876;2023-09-30T14:02:22;27.83;36.06
73112;HTU21D;61301;51.956;5.876;2023-09-30T14:04:49;27.83;36.56
73112;HTU21D;61301;51.956;5.876;2023-09-30T14:07:15;27.96;35.81
73112;HTU21D;61301;51.956;5.876;2023-09-30T14:09:44;27.95;36.10
73112;HTU21D;61301;51.956;5.876;2023-09-30T14:12:10;27.72;35.40
73112;HTU21D;61301;51.956;5.876;2023-09-30T14:14:36;27.38;36.30
73112;HTU21D;61301;51.956;5.876;2023-09-30T14:17:03;27.28;36.61
73112;HTU21D;61301;51.956;5.876;2023-09-30T14:19:37;27.47;36.57
73112;HTU21D;61301;51.956;5.876;2023-09-30T14:22:05;27.66;36.50
73112;HTU21D;61301;51.956;5.876;2023-09-30T14:24:32;27.71;36.38
73112;HTU21D;61301;51.956;5.876;2023-09-30T14:27:00;27.87;36.77
73112;HTU21D;61301;51.956;5.876;2023-09-30T14:29:26;28.20;36.49
73112;HTU21D;61301;51.956;5.876;2023-09-30T14:31:52;28.30;36.24
73112;HTU21D;61301;51.956;5.876;2023-09-30T14:34:18;28.42;36.47
73112;HTU21D;61301;51.956;5.876;2023-09-30T14:36:44;28.52;36.56
73112;HTU21D;61301;51.956;5.876;2023-09-30T14:39:10;28.68;36.49
73112;HTU21D;61301;51.956;5.876;2023-09-30T14:41:36;28.80;36.63
73112;HTU21D;61301;51.956;5.876;2023-09-30T14:44:03;28.88;35.38
73112;HTU21D;61301;51.956;5.876;2023-09-30T14:46:29;28.91;36.14
73112;HTU21D;61301;51.956;5.876;2023-09-30T14:48:55;29.00;35.63
73112;HTU21D;61301;51.956;5.876;2023-09-30T14:51:31;29.14;35.36
73112;HTU21D;61301;51.956;5.876;2023-09-30T14:54:00;29.01;34.99
73112;HTU21D;61301;51.956;5.876;2023-09-30T14:56:27;28.86;35.63
73112;HTU21D;61301;51.956;5.876;2023-09-30T14:58:53;28.75;35.76
73112;HTU21D;61301;51.956;5.876;2023-09-30T15:01:19;28.58;35.72
73112;HTU21D;61301;51.956;5.876;2023-09-30T15:03:46;28.43;36.30
73112;HTU21D;61301;51.956;5.876;2023-09-30T15:06:12;28.45;36.43
73112;HTU21D;61301;51.956;5.876;2023-09-30T15:08:38;28.49;36.49
73112;HTU21D;61301;51.956;5.876;2023-09-30T15:11:04;28.47;35.86
73112;HTU21D;61301;51.956;5.876;2023-09-30T15:13:32;28.35;36.21
73112;HTU21D;61301;51.956;5.876;2023-09-30T15:15:58;28.33;36.47
73112;HTU21D;61301;51.956;5.876;2023-09-30T15:18:24;28.33;36.68
73112;HTU21D;61301;51.956;5.876;2023-09-30T15:20:50;28.40;36.80
73112;HTU21D;61301;51.956;5.876;2023-09-30T15:23:16;28.35;37.05
73112;HTU21D;61301;51.956;5.876;2023-09-30T15:25:45;28.32;37.09
73112;HTU21D;61301;51.956;5.876;2023-09-30T15:28:15;28.32;37.14
73112;HTU21D;61301;51.956;5.876;2023-09-30T15:30:41;28.29;37.05
73112;HTU21D;61301;51.956;5.876;2023-09-30T15:33:07;28.25;37.31
73112;HTU21D;61301;51.956;5.876;2023-09-30T15:35:36;28.31;37.29
73112;HTU21D;61301;51.956;5.876;2023-09-30T15:38:03;28.26;37.27